CheckWX is a tool to help pilots better visualize weather data.  It is not intended as a substitute for an official pre-flight weather briefing.

22:21:46 UTC

KLMT METAR
Crater Lake-Klamath Regional Airport
Klamath Falls, Oregon, USA
Current

29 mins ago

KLMT 202153Z VRB04KT 10SM FEW080 28/08 A3001 RMK AO2 SLP115 T02780078
Observed
Jul-20 @ 21:53 UTC
Wind
  • Variable at 4 KTS
Visibility
10 SM
Flight Rules
VFR
Cloud Levels
  • Few at 8,000' AGL
Temperature
28°C / 82°F
Dewpoint
C / 46°F
Humidity
28%
Altimeter
30.01" Hg
Pressure
1016.22 hPa
Previous

1 hour ago

KLMT 202053Z 23006KT 10SM FEW080 26/10 A3003 RMK AO2 SLP122 T02610100 58009
Observed
Jul-20 @ 20:53 UTC
Wind
  • 230° at 6 KTS
Visibility
10 SM
Flight Rules
VFR
Cloud Levels
  • Few at 8,000' AGL
Temperature
26°C / 79°F
Dewpoint
10°C / 50°F
Humidity
37%
Altimeter
30.03" Hg
Pressure
1016.92 hPa
Previous

2 hours ago

KLMT 201953Z VRB04KT 10SM CLR 26/07 A3004 RMK AO2 SLP126 T02610072
Observed
Jul-20 @ 19:53 UTC
Wind
  • Variable at 4 KTS
Visibility
10 SM
Flight Rules
VFR
Cloud Levels
  • Clear skies
Temperature
26°C / 79°F
Dewpoint
C / 45°F
Humidity
30%
Altimeter
30.04" Hg
Pressure
1017.32 hPa